createdAt,value
2018-06-02T00:02:08.500Z,33.63
2018-06-02T00:04:37.430Z,34.77
2018-06-02T00:07:05.970Z,33.40
2018-06-02T00:09:35.020Z,33.23
2018-06-02T00:12:03.187Z,32.60
2018-06-02T00:14:32.591Z,33.10
2018-06-02T00:17:01.221Z,35.43
2018-06-02T00:19:29.923Z,36.17
2018-06-02T00:21:58.991Z,34.67
2018-06-02T00:24:27.941Z,35.13
2018-06-02T00:26:56.127Z,35.73
2018-06-02T00:29:26.112Z,37.07
2018-06-02T00:31:55.614Z,34.63
2018-06-02T00:34:24.583Z,37.90
2018-06-02T00:36:54.023Z,37.10
2018-06-02T00:39:22.178Z,37.10
2018-06-02T00:41:50.868Z,37.10
2018-06-02T00:44:19.011Z,33.00
2018-06-02T00:46:47.202Z,33.10
2018-06-02T00:49:17.243Z,35.50
2018-06-02T00:51:45.804Z,33.17
2018-06-02T00:54:14.194Z,33.23
2018-06-02T00:56:42.819Z,34.20
2018-06-02T00:59:11.342Z,34.80
2018-06-02T01:01:39.803Z,35.70
2018-06-02T01:04:09.334Z,34.13
2018-06-02T01:06:38.423Z,35.37
2018-06-02T01:09:07.677Z,33.40
2018-06-02T01:11:36.511Z,34.00
2018-06-02T01:14:05.802Z,34.07
2018-06-02T01:16:34.802Z,33.37
2018-06-02T01:19:04.484Z,31.77
2018-06-02T01:21:33.129Z,31.93
2018-06-02T01:24:01.511Z,32.63
2018-06-02T01:26:29.696Z,30.93
2018-06-02T01:28:58.795Z,30.27
2018-06-02T01:31:27.843Z,30.93
2018-06-02T01:33:56.267Z,31.07
2018-06-02T01:36:24.699Z,28.27
2018-06-02T01:38:54.126Z,31.63
2018-06-02T01:41:22.689Z,29.90
2018-06-02T01:43:51.111Z,29.13
2018-06-02T01:46:20.138Z,31.33
2018-06-02T01:48:48.789Z,29.53
2018-06-02T01:51:16.947Z,29.67
2018-06-02T01:53:46.149Z,29.20
2018-06-02T01:56:14.679Z,29.00
2018-06-02T01:58:43.100Z,30.50
2018-06-02T02:01:12.007Z,30.57
2018-06-02T02:03:40.674Z,29.73
2018-06-02T02:06:09.267Z,29.77
2018-06-02T02:08:38.770Z,30.27
2018-06-02T02:11:08.203Z,29.50
2018-06-02T02:13:36.866Z,30.00
2018-06-02T02:16:05.015Z,32.20
2018-06-02T02:18:33.499Z,31.80
2018-06-02T02:21:02.132Z,31.43
2018-06-02T02:23:30.655Z,32.70
2018-06-02T02:25:59.176Z,32.13
2018-06-02T02:28:28.334Z,32.70
2018-06-02T02:30:56.511Z,33.33
2018-06-02T02:33:25.176Z,33.30
2018-06-02T02:35:53.712Z,32.50
2018-06-02T02:38:22.331Z,32.43
2018-06-02T02:40:51.370Z,31.30
2018-06-02T02:43:19.763Z,35.67
2018-06-02T02:45:48.536Z,35.27
2018-06-02T02:48:17.130Z,34.87
2018-06-02T02:50:45.656Z,32.17
2018-06-02T02:53:14.182Z,30.07
2018-06-02T02:55:42.650Z,28.80
2018-06-02T02:58:10.790Z,30.43
2018-06-02T03:00:39.887Z,30.30
2018-06-02T03:03:08.883Z,33.47
2018-06-02T03:05:37.335Z,32.63
2018-06-02T03:08:06.403Z,33.37
2018-06-02T03:10:34.962Z,32.57
2018-06-02T03:13:03.770Z,34.20
2018-06-02T03:15:31.963Z,34.20
2018-06-02T03:18:00.398Z,33.97
2018-06-02T03:20:28.598Z,36.07
2018-06-02T03:22:57.558Z,34.33
2018-06-02T03:25:25.750Z,34.63
2018-06-02T03:27:54.714Z,34.70
2018-06-02T03:30:23.868Z,37.67
2018-06-02T03:32:52.299Z,38.67
2018-06-02T03:35:20.480Z,39.37
2018-06-02T03:37:49.655Z,39.77
2018-06-02T03:40:18.189Z,39.93
2018-06-02T03:42:47.552Z,38.40
2018-06-02T03:45:15.706Z,36.43
2018-06-02T03:47:43.927Z,40.37
2018-06-02T03:50:13.119Z,40.37
2018-06-02T03:52:43.731Z,41.63
2018-06-02T03:55:11.922Z,42.83
2018-06-02T03:57:41.174Z,40.37
2018-06-02T04:00:09.841Z,43.37
2018-06-02T04:02:39.303Z,41.20
2018-06-02T04:05:08.565Z,41.60
2018-06-02T04:07:36.803Z,42.23
2018-06-02T04:10:06.139Z,42.40
2018-06-02T04:12:34.874Z,43.97
2018-06-02T04:15:03.035Z,43.33
2018-06-02T04:17:32.124Z,43.20
2018-06-02T04:20:00.660Z,43.23
2018-06-02T04:22:29.254Z,42.87
2018-06-02T04:24:57.778Z,43.17
2018-06-02T04:27:26.406Z,43.37
2018-06-02T04:29:55.482Z,41.40
2018-06-02T04:32:23.666Z,41.33
2018-06-02T04:34:52.014Z,43.20
2018-06-02T04:37:21.144Z,41.97
2018-06-02T04:39:49.558Z,42.77
2018-06-02T04:42:18.018Z,42.07
2018-06-02T04:44:46.439Z,44.43
2018-06-02T04:47:15.267Z,42.13
2018-06-02T04:49:44.094Z,44.37
2018-06-02T04:52:12.956Z,43.00
2018-06-02T04:54:41.944Z,44.33
2018-06-02T04:57:11.148Z,43.37
2018-06-02T04:59:39.756Z,42.47
2018-06-02T05:02:09.879Z,44.37
2018-06-02T05:04:38.292Z,41.37
2018-06-02T05:07:08.707Z,45.87
2018-06-02T05:09:37.233Z,45.63
2018-06-02T05:12:06.271Z,45.30
2018-06-02T05:14:34.683Z,45.20
2018-06-02T05:17:03.231Z,46.97
2018-06-02T05:22:13.230Z,46.80
2018-06-02T05:24:41.756Z,50.43
2018-06-02T05:27:09.914Z,46.90
2018-06-02T05:29:38.454Z,48.07
2018-06-02T05:32:07.090Z,50.97
2018-06-02T05:34:35.754Z,51.73
2018-06-02T05:37:03.930Z,53.07
2018-06-02T05:39:33.329Z,50.17
2018-06-02T05:42:01.959Z,50.03
2018-06-02T05:44:30.379Z,53.43
2018-06-02T05:46:58.905Z,52.73
2018-06-02T05:49:30.990Z,57.20
2018-06-02T05:51:59.374Z,57.53
2018-06-02T05:54:28.235Z,56.00
2018-06-02T05:56:56.876Z,56.83
2018-06-02T05:59:25.398Z,54.23
2018-06-02T06:01:53.820Z,52.77
2018-06-02T06:04:21.996Z,52.07
2018-06-02T06:06:51.146Z,53.63
2018-06-02T06:09:19.605Z,51.57
2018-06-02T06:11:47.763Z,52.90
2018-06-02T06:14:16.344Z,52.67
2018-06-02T06:16:44.507Z,52.43
2018-06-02T06:19:15.584Z,52.13
2018-06-02T06:21:43.778Z,52.13
2018-06-02T06:24:12.431Z,52.93
2018-06-02T06:26:40.852Z,48.77
2018-06-02T06:29:09.482Z,52.00
2018-06-02T06:31:37.642Z,51.40
2018-06-02T06:34:05.867Z,52.53
2018-06-02T06:36:34.537Z,53.20
2018-06-02T06:39:04.006Z,50.97
2018-06-02T06:41:32.703Z,49.73
2018-06-02T06:44:00.919Z,52.87
2018-06-02T06:46:29.335Z,51.20
2018-06-02T06:48:57.792Z,49.40
2018-06-02T06:51:26.631Z,51.33
2018-06-02T06:53:54.878Z,49.20
2018-06-02T06:56:26.191Z,48.47
2018-06-02T06:58:54.788Z,49.47
2018-06-02T07:01:23.858Z,49.60
2018-06-02T07:03:52.498Z,50.13
2018-06-02T07:06:20.923Z,48.57
2018-06-02T07:08:49.453Z,47.83
2018-06-02T07:11:18.042Z,46.87
2018-06-02T07:13:46.496Z,46.63
2018-06-02T07:16:14.652Z,42.13
2018-06-02T07:18:42.848Z,40.10
2018-06-02T07:21:13.526Z,37.90
2018-06-02T07:23:43.957Z,35.83
2018-06-02T07:26:12.468Z,32.47
2018-06-02T07:28:41.515Z,31.77
2018-06-02T07:31:09.698Z,31.03
2018-06-02T07:33:38.427Z,26.80
2018-06-02T07:36:07.629Z,25.57
2018-06-02T07:38:35.804Z,24.07
2018-06-02T07:41:04.635Z,23.80
2018-06-02T07:43:33.505Z,22.67
2018-06-02T07:46:02.849Z,21.37
2018-06-02T07:48:31.392Z,22.43
2018-06-02T07:51:00.433Z,22.37
2018-06-02T07:53:29.071Z,22.00
2018-06-02T07:55:58.214Z,21.63
2018-06-02T07:58:26.450Z,20.67
2018-06-02T08:00:54.848Z,19.80
2018-06-02T08:03:25.354Z,19.20
2018-06-02T08:05:53.998Z,17.97
2018-06-02T08:08:23.219Z,18.47
2018-06-02T08:10:51.387Z,18.03
2018-06-02T08:13:20.502Z,17.17
2018-06-02T08:15:48.942Z,16.97
2018-06-02T08:18:17.483Z,17.70
2018-06-02T08:20:46.718Z,17.90
2018-06-02T08:23:15.774Z,17.03
2018-06-02T08:25:44.906Z,17.10
2018-06-02T08:28:14.346Z,17.17
2018-06-02T08:30:43.226Z,18.37
2018-06-02T08:33:11.413Z,18.00
2018-06-02T08:35:39.596Z,16.90
2018-06-02T08:38:08.070Z,14.93
2018-06-02T08:40:37.223Z,14.53
2018-06-02T08:43:05.418Z,15.27
2018-06-02T08:45:34.575Z,14.13
2018-06-02T08:48:03.007Z,14.30
2018-06-02T08:50:31.297Z,11.77
2018-06-02T08:53:00.582Z,10.90
2018-06-02T08:55:29.733Z,11.53
2018-06-02T08:57:57.886Z,12.40
2018-06-02T09:00:26.387Z,12.97
2018-06-02T09:02:55.308Z,11.87
2018-06-02T09:05:24.457Z,12.50
2018-06-02T09:07:52.635Z,11.60
2018-06-02T09:10:20.862Z,11.63
2018-06-02T09:12:49.518Z,11.17
2018-06-02T09:15:17.940Z,11.13
2018-06-02T09:17:47.371Z,11.90
2018-06-02T09:20:15.571Z,11.33
2018-06-02T09:22:44.039Z,12.07
2018-06-02T09:25:12.774Z,11.97
2018-06-02T09:27:41.195Z,12.17
2018-06-02T09:30:10.560Z,11.80
2018-06-02T09:32:38.707Z,11.63
2018-06-02T09:35:07.020Z,12.30
2018-06-02T09:37:36.238Z,11.27
2018-06-02T09:40:04.763Z,10.27
2018-06-02T09:42:33.393Z,10.30
2018-06-02T09:45:02.534Z,10.13
2018-06-02T09:47:30.726Z,9.40
2018-06-02T09:49:59.911Z,9.07
2018-06-02T09:52:28.543Z,9.30
2018-06-02T09:54:57.067Z,9.40
2018-06-02T09:57:25.697Z,8.73
2018-06-02T09:59:54.222Z,9.00
2018-06-02T10:02:23.547Z,8.20
2018-06-02T10:04:51.740Z,9.27
2018-06-02T10:07:19.919Z,7.60
2018-06-02T10:09:50.070Z,8.83
2018-06-02T10:12:18.836Z,14.73
2018-06-02T10:14:47.779Z,6.70
2018-06-02T10:17:15.946Z,6.80
2018-06-02T10:19:44.491Z,6.97
2018-06-02T10:22:13.148Z,6.80
2018-06-02T10:24:42.195Z,8.40
2018-06-02T10:27:10.721Z,8.23
2018-06-02T10:29:38.926Z,6.90
2018-06-02T10:32:07.459Z,6.53
2018-06-02T10:34:35.880Z,6.57
2018-06-02T10:37:04.364Z,6.87
2018-06-02T10:39:32.582Z,7.53
2018-06-02T10:42:01.490Z,7.10
2018-06-02T10:44:31.386Z,7.90
2018-06-02T10:46:59.727Z,8.20
2018-06-02T10:49:28.497Z,8.20
2018-06-02T10:51:56.639Z,8.20
2018-06-02T10:54:24.829Z,7.40
2018-06-02T10:56:53.240Z,8.70
2018-06-02T10:59:21.831Z,8.10
2018-06-02T11:01:51.007Z,8.80
2018-06-02T11:04:19.652Z,7.50
2018-06-02T11:06:48.933Z,8.20
2018-06-02T11:09:19.960Z,7.43
2018-06-02T11:11:48.918Z,7.40
2018-06-02T11:14:17.582Z,8.00
2018-06-02T11:16:45.767Z,7.80
2018-06-02T11:19:14.635Z,7.57
2018-06-02T11:21:43.092Z,7.83
2018-06-02T11:24:12.022Z,8.40
2018-06-02T11:26:40.665Z,7.83
2018-06-02T11:29:08.807Z,8.93
2018-06-02T11:31:38.030Z,8.77
2018-06-02T11:34:06.660Z,8.93
2018-06-02T11:36:34.812Z,8.60
2018-06-02T11:39:02.986Z,9.13
2018-06-02T11:41:31.566Z,8.10
2018-06-02T11:43:59.799Z,9.00
2018-06-02T11:46:28.976Z,8.40
2018-06-02T11:48:57.605Z,8.47
2018-06-02T11:51:27.475Z,7.50
2018-06-02T11:53:56.118Z,7.57
2018-06-02T11:56:24.710Z,8.50
2018-06-02T11:58:53.275Z,8.87
2018-06-02T12:01:21.711Z,8.63
2018-06-02T12:03:51.788Z,9.13
2018-06-02T12:06:20.489Z,8.60
2018-06-02T12:08:48.666Z,8.83
2018-06-02T12:11:17.744Z,8.90
2018-06-02T12:13:46.678Z,8.60
2018-06-02T12:16:16.991Z,9.00
2018-06-02T12:18:45.634Z,9.90
2018-06-02T12:21:13.815Z,9.50
2018-06-02T12:23:42.293Z,8.87
2018-06-02T12:26:10.447Z,9.17
2018-06-02T12:28:39.331Z,8.47
2018-06-02T12:31:07.522Z,8.80
2018-06-02T12:33:35.698Z,8.77
2018-06-02T12:36:04.817Z,8.13
2018-06-02T12:38:33.238Z,7.87
2018-06-02T12:41:01.433Z,7.57
2018-06-02T12:43:29.871Z,6.77
2018-06-02T12:45:58.397Z,7.60
2018-06-02T12:48:26.818Z,7.67
2018-06-02T12:50:54.967Z,7.90
2018-06-02T12:53:23.441Z,7.27
2018-06-02T12:55:51.599Z,7.10
2018-06-02T12:58:19.782Z,9.03
2018-06-02T13:00:48.301Z,8.70
2018-06-02T13:03:16.472Z,8.27
2018-06-02T13:05:44.703Z,7.57
2018-06-02T13:08:13.132Z,7.47
2018-06-02T13:10:41.747Z,6.40
2018-06-02T13:13:10.263Z,6.30
2018-06-02T13:15:39.439Z,6.90
2018-06-02T13:18:08.813Z,6.60
2018-06-02T13:20:37.653Z,6.47
2018-06-02T13:23:06.810Z,5.37
2018-06-02T13:25:35.191Z,6.13
2018-06-02T13:28:04.051Z,5.73
2018-06-02T13:30:32.800Z,6.30
2018-06-02T13:33:01.308Z,5.53
2018-06-02T13:35:30.151Z,5.80
2018-06-02T13:37:59.490Z,5.50
2018-06-02T13:40:27.670Z,4.87
2018-06-02T13:42:56.713Z,4.83
2018-06-02T13:45:24.798Z,5.97
2018-06-02T13:47:53.283Z,6.13
2018-06-02T13:50:21.538Z,5.80
2018-06-02T13:52:50.035Z,7.10
2018-06-02T13:55:18.475Z,6.73
2018-06-02T13:57:46.631Z,5.90
2018-06-02T14:00:15.423Z,6.17
2018-06-02T14:02:44.563Z,5.50
2018-06-02T14:05:13.171Z,5.83
2018-06-02T14:07:41.351Z,5.23
2018-06-02T14:10:10.435Z,5.53
2018-06-02T14:12:38.646Z,5.80
2018-06-02T14:15:07.308Z,5.10
2018-06-02T14:17:35.937Z,5.83
2018-06-02T14:20:04.463Z,5.80
2018-06-02T14:22:33.379Z,6.17
2018-06-02T14:25:01.587Z,5.37
2018-06-02T14:27:29.771Z,5.80
2018-06-02T14:29:57.951Z,6.13
2018-06-02T14:32:26.526Z,6.63
2018-06-02T14:34:55.304Z,6.43
2018-06-02T14:37:23.456Z,6.80
2018-06-02T14:39:52.878Z,6.37
2018-06-02T14:42:21.512Z,6.23
2018-06-02T14:44:49.646Z,6.50
2018-06-02T14:47:18.599Z,6.07
2018-06-02T14:49:47.189Z,6.13
2018-06-02T14:52:15.340Z,7.27
2018-06-02T14:54:44.458Z,6.17
2018-06-02T14:57:12.671Z,5.87
2018-06-02T14:59:40.848Z,5.70
2018-06-02T15:02:10.588Z,6.10
2018-06-02T15:04:39.597Z,5.57
2018-06-02T15:07:08.199Z,6.10
2018-06-02T15:09:36.858Z,5.60
2018-06-02T15:12:05.455Z,5.63
2018-06-02T15:14:33.630Z,5.40
2018-06-02T15:17:03.478Z,4.90
2018-06-02T15:19:32.619Z,5.70
2018-06-02T15:22:01.667Z,5.43
2018-06-02T15:24:30.611Z,4.70
2018-06-02T15:26:59.044Z,5.20
2018-06-02T15:29:27.465Z,4.83
2018-06-02T15:31:55.633Z,4.93
2018-06-02T15:34:24.203Z,4.60
2018-06-02T15:36:53.343Z,4.40
2018-06-02T15:39:22.182Z,5.00
2018-06-02T15:41:50.371Z,5.67
2018-06-02T15:44:18.555Z,5.20
2018-06-02T15:46:47.041Z,4.83
2018-06-02T15:49:15.311Z,5.00
2018-06-02T15:51:44.531Z,5.30
2018-06-02T15:54:12.687Z,5.00
2018-06-02T15:56:41.545Z,4.80
2018-06-02T15:59:09.730Z,5.37
2018-06-02T16:01:39.135Z,5.90
2018-06-02T16:04:07.556Z,6.03
2018-06-02T16:06:35.723Z,5.33
2018-06-02T16:09:04.991Z,5.93
2018-06-02T16:11:33.447Z,5.70
2018-06-02T16:14:01.595Z,5.93
2018-06-02T16:16:30.066Z,7.23
2018-06-02T16:18:58.606Z,6.33
2018-06-02T16:21:26.753Z,6.10
2018-06-02T16:23:55.344Z,6.03
2018-06-02T16:26:23.870Z,6.93
2018-06-02T16:28:52.702Z,6.83
2018-06-02T16:31:21.683Z,9.00
2018-06-02T16:33:50.498Z,7.37
2018-06-02T16:36:19.434Z,7.13
2018-06-02T16:38:47.586Z,11.40
2018-06-02T16:41:16.277Z,7.30
2018-06-02T16:43:45.108Z,7.90
2018-06-02T16:46:13.286Z,8.30
2018-06-02T16:48:41.854Z,8.13
2018-06-02T16:51:11.323Z,8.43
2018-06-02T16:53:39.606Z,7.97
2018-06-02T16:56:07.790Z,8.17
2018-06-02T16:58:36.375Z,6.53
2018-06-02T17:01:05.874Z,5.40
2018-06-02T17:03:35.375Z,7.63
2018-06-02T17:06:03.564Z,7.23
2018-06-02T17:08:32.659Z,6.70
2018-06-02T17:11:01.602Z,5.07
2018-06-02T17:13:30.248Z,5.43
2018-06-02T17:15:58.383Z,5.10
2018-06-02T17:18:26.983Z,4.33
2018-06-02T17:20:55.207Z,4.57
2018-06-02T17:23:23.406Z,4.40
2018-06-02T17:25:52.770Z,4.50
2018-06-02T17:28:21.366Z,3.93
2018-06-02T17:30:49.514Z,3.90
2018-06-02T17:33:18.765Z,4.47
2018-06-02T17:35:47.395Z,4.53
2018-06-02T17:38:15.539Z,5.10
2018-06-02T17:40:44.588Z,4.90
2018-06-02T17:43:14.315Z,4.93
2018-06-02T17:45:42.959Z,5.57
2018-06-02T17:48:11.380Z,5.70
2018-06-02T17:50:39.531Z,6.00
2018-06-02T17:53:08.016Z,5.30
2018-06-02T17:55:37.230Z,4.60
2018-06-02T17:58:07.260Z,6.03
2018-06-02T18:00:35.668Z,6.20
2018-06-02T18:03:04.611Z,6.27
2018-06-02T18:05:32.794Z,5.87
2018-06-02T18:08:01.465Z,6.17
2018-06-02T18:10:30.386Z,6.20
2018-06-02T18:12:59.248Z,6.10
2018-06-02T18:15:28.226Z,6.57
2018-06-02T18:17:57.434Z,7.03
2018-06-02T18:20:25.938Z,6.63
2018-06-02T18:22:54.360Z,6.60
2018-06-02T18:25:22.542Z,7.43
2018-06-02T18:27:51.642Z,6.80
2018-06-02T18:30:19.840Z,7.67
2018-06-02T18:32:48.704Z,6.80
2018-06-02T18:35:17.643Z,6.63
2018-06-02T18:37:46.059Z,6.77
2018-06-02T18:40:14.247Z,6.97
2018-06-02T18:42:42.709Z,6.37
2018-06-02T18:45:11.095Z,6.83
2018-06-02T18:47:40.175Z,6.70
2018-06-02T18:50:08.402Z,6.63
2018-06-02T18:52:38.259Z,5.90
2018-06-02T18:55:06.463Z,6.37
2018-06-02T18:57:35.012Z,6.17
2018-06-02T19:00:03.500Z,6.20
2018-06-02T19:02:32.119Z,6.47
2018-06-02T19:05:00.302Z,6.10
2018-06-02T19:07:29.675Z,6.17
2018-06-02T19:09:58.995Z,6.07
2018-06-02T19:12:27.523Z,6.17
2018-06-02T19:14:56.658Z,5.60
2018-06-02T19:17:25.737Z,5.10
2018-06-02T19:19:54.351Z,5.90
2018-06-02T19:22:23.572Z,5.43
2018-06-02T19:24:51.755Z,6.00
2018-06-02T19:27:20.243Z,6.67
2018-06-02T19:29:48.383Z,5.63
2018-06-02T19:32:17.678Z,5.47
2018-06-02T19:34:46.618Z,5.30
2018-06-02T19:37:16.087Z,5.70
2018-06-02T19:39:45.483Z,5.97
2018-06-02T19:42:13.682Z,5.57
2018-06-02T19:44:42.504Z,5.70
2018-06-02T19:47:11.663Z,6.23
2018-06-02T19:49:40.107Z,6.10
2018-06-02T19:52:08.259Z,5.90
2018-06-02T19:54:36.467Z,6.47
2018-06-02T19:57:05.359Z,7.00
2018-06-02T19:59:33.543Z,6.33
2018-06-02T20:02:02.619Z,6.13
2018-06-02T20:04:31.159Z,6.60
2018-06-02T20:06:59.348Z,6.37
2018-06-02T20:09:27.967Z,7.00
2018-06-02T20:11:56.151Z,6.87
2018-06-02T20:14:25.783Z,7.80
2018-06-02T20:16:54.204Z,7.37
2018-06-02T20:19:22.714Z,7.33
2018-06-02T20:21:52.183Z,8.10
2018-06-02T20:24:21.334Z,7.00
2018-06-02T20:26:49.527Z,7.93
2018-06-02T20:29:18.191Z,7.77
2018-06-02T20:31:46.716Z,7.50
2018-06-02T20:34:15.345Z,6.80
2018-06-02T20:36:43.859Z,7.23
2018-06-02T20:39:12.502Z,7.20
2018-06-02T20:41:41.643Z,7.47
2018-06-02T20:44:10.735Z,6.67
2018-06-02T20:46:39.687Z,7.13
2018-06-02T20:49:08.891Z,7.93
2018-06-02T20:51:37.532Z,7.40
2018-06-02T20:54:06.137Z,7.43
2018-06-02T20:56:34.319Z,8.53
2018-06-02T20:59:02.716Z,8.60
2018-06-02T21:01:32.376Z,7.70
2018-06-02T21:04:01.206Z,8.33
2018-06-02T21:06:30.358Z,7.93
2018-06-02T21:08:59.363Z,8.07
2018-06-02T21:11:28.285Z,7.93
2018-06-02T21:13:56.462Z,8.23
2018-06-02T21:16:24.651Z,8.10
2018-06-02T21:18:53.707Z,8.07
2018-06-02T21:21:22.650Z,7.67
2018-06-02T21:23:51.185Z,9.37
2018-06-02T21:26:19.611Z,8.43
2018-06-02T21:28:48.238Z,9.77
2018-06-02T21:31:16.651Z,10.10
2018-06-02T21:33:45.313Z,13.27
2018-06-02T21:36:13.446Z,12.50
2018-06-02T21:38:41.642Z,14.27
2018-06-02T21:41:10.346Z,13.93
2018-06-02T21:43:39.175Z,15.10
2018-06-02T21:46:08.566Z,16.17
2018-06-02T21:48:37.176Z,16.10
2018-06-02T21:51:05.662Z,16.33
2018-06-02T21:53:34.299Z,15.00
2018-06-02T21:56:03.484Z,16.03
2018-06-02T21:58:32.114Z,17.53
2018-06-02T22:01:00.266Z,15.97
2018-06-02T22:03:28.481Z,17.37
2018-06-02T22:05:57.190Z,16.97
2018-06-02T22:08:26.645Z,16.97
2018-06-02T22:10:55.775Z,19.30
2018-06-02T22:13:25.984Z,19.60
2018-06-02T22:15:55.033Z,17.07
2018-06-02T22:18:23.193Z,19.80
2018-06-02T22:20:51.770Z,20.70
2018-06-02T22:23:20.400Z,20.13
2018-06-02T22:25:48.556Z,19.23
2018-06-02T22:28:16.750Z,19.47
2018-06-02T22:30:45.246Z,20.37
2018-06-02T22:33:14.191Z,19.10
2018-06-02T22:35:42.375Z,21.07
2018-06-02T22:38:10.826Z,20.30
2018-06-02T22:40:39.454Z,21.90
2018-06-02T22:43:08.605Z,22.80
2018-06-02T22:45:36.785Z,21.00
2018-06-02T22:48:06.545Z,22.80
2018-06-02T22:50:34.730Z,21.93
2018-06-02T22:53:04.520Z,22.33
2018-06-02T22:55:33.845Z,22.40
2018-06-02T22:58:03.192Z,22.03
2018-06-02T23:00:32.346Z,23.13
2018-06-02T23:03:03.098Z,21.93
2018-06-02T23:05:32.323Z,22.43
2018-06-02T23:08:01.455Z,21.17
2018-06-02T23:10:29.606Z,22.57
2018-06-02T23:12:59.259Z,26.43
2018-06-02T23:15:28.727Z,26.00
2018-06-02T23:17:57.261Z,23.93
2018-06-02T23:20:26.207Z,25.67
2018-06-02T23:22:56.184Z,29.43
2018-06-02T23:25:26.379Z,32.70
2018-06-02T23:27:56.427Z,33.03
2018-06-02T23:30:24.624Z,33.40
2018-06-02T23:32:53.116Z,35.40
2018-06-02T23:35:21.266Z,33.93
2018-06-02T23:37:51.315Z,32.97
2018-06-02T23:40:20.464Z,36.80
2018-06-02T23:42:48.659Z,37.07
2018-06-02T23:45:17.610Z,35.57
2018-06-02T23:47:46.555Z,31.47
2018-06-02T23:50:15.094Z,35.30
2018-06-02T23:52:43.712Z,35.47
2018-06-02T23:55:12.147Z,38.30
2018-06-02T23:57:40.302Z,36.70
